createdAt,value
2019-03-21T00:00:03.091Z,72
2019-03-21T00:01:03.505Z,72
2019-03-21T00:02:03.591Z,73
2019-03-21T00:03:03.466Z,73
2019-03-21T00:04:03.660Z,73
2019-03-21T00:05:03.046Z,73
2019-03-21T00:06:03.859Z,73
2019-03-21T00:07:03.859Z,73
2019-03-21T00:08:03.176Z,73
2019-03-21T00:09:03.068Z,73
2019-03-21T00:10:03.239Z,73
2019-03-21T00:11:03.076Z,73
2019-03-21T00:12:03.616Z,73
2019-03-21T00:13:03.113Z,73
2019-03-21T00:14:07.589Z,73
2019-03-21T00:15:03.661Z,73
2019-03-21T00:16:03.769Z,73
2019-03-21T00:17:03.118Z,73
2019-03-21T00:18:02.998Z,73
2019-03-21T00:19:03.423Z,73
2019-03-21T00:20:03.504Z,73
2019-03-21T00:21:03.380Z,73
2019-03-21T00:22:03.508Z,73
2019-03-21T00:23:03.526Z,73
2019-03-21T00:24:03.033Z,73
2019-03-21T00:25:02.916Z,73
2019-03-21T00:26:03.319Z,73
2019-03-21T00:27:03.354Z,73
2019-03-21T00:28:03.082Z,73
2019-03-21T00:29:03.598Z,73
2019-03-21T00:30:03.700Z,73
2019-03-21T00:31:03.373Z,73
2019-03-21T00:32:03.622Z,73
2019-03-21T00:33:03.694Z,73
2019-03-21T00:34:03.292Z,73
2019-03-21T00:35:03.258Z,73
2019-03-21T00:36:03.567Z,73
2019-03-21T00:37:02.930Z,73
2019-03-21T00:38:03.091Z,73
2019-03-21T00:39:03.093Z,73
2019-03-21T00:40:03.363Z,73
2019-03-21T00:41:03.409Z,73
2019-03-21T00:42:03.414Z,74
2019-03-21T00:43:02.667Z,74
2019-03-21T00:44:02.771Z,74
2019-03-21T00:45:03.107Z,74
2019-03-21T00:46:03.374Z,74
2019-03-21T00:47:03.524Z,74
2019-03-21T00:48:03.052Z,74
2019-03-21T00:49:03.069Z,74
2019-03-21T00:50:03.079Z,74
2019-03-21T00:51:03.305Z,74
2019-03-21T00:52:03.340Z,74
2019-03-21T00:53:03.126Z,74
2019-03-21T00:54:03.257Z,74
2019-03-21T00:55:03.381Z,74
2019-03-21T00:56:03.134Z,74
2019-03-21T00:57:03.624Z,74
2019-03-21T00:58:03.447Z,74
2019-03-21T00:59:03.208Z,74
2019-03-21T01:00:03.760Z,74
2019-03-21T01:01:03.132Z,74
2019-03-21T01:02:03.592Z,74
2019-03-21T01:03:04.136Z,74
2019-03-21T01:04:03.413Z,74
2019-03-21T01:05:03.425Z,74
2019-03-21T01:06:03.325Z,75
2019-03-21T01:07:03.553Z,75
2019-03-21T01:08:03.281Z,75
2019-03-21T01:09:03.136Z,75
2019-03-21T01:10:03.556Z,75
2019-03-21T01:11:03.687Z,75
2019-03-21T01:12:04.015Z,74
2019-03-21T01:13:03.513Z,75
2019-03-21T01:14:03.739Z,75
2019-03-21T01:15:04.005Z,74
2019-03-21T01:16:03.533Z,74
2019-03-21T01:17:02.949Z,74
2019-03-21T01:18:03.317Z,74
2019-03-21T01:19:03.468Z,74
2019-03-21T01:20:03.637Z,74
2019-03-21T01:21:03.614Z,74
2019-03-21T01:22:03.329Z,74
2019-03-21T01:23:03.382Z,75
2019-03-21T01:24:03.676Z,75
2019-03-21T01:25:03.305Z,75
2019-03-21T01:26:03.455Z,75
2019-03-21T01:27:03.413Z,75
2019-03-21T01:28:03.708Z,75
2019-03-21T01:29:03.361Z,75
2019-03-21T01:30:03.083Z,75
2019-03-21T01:31:03.097Z,75
2019-03-21T01:32:03.354Z,75
2019-03-21T01:33:03.250Z,75
2019-03-21T01:34:03.414Z,75
2019-03-21T01:35:03.089Z,75
2019-03-21T01:36:03.315Z,75
2019-03-21T01:37:03.003Z,75
2019-03-21T01:38:03.098Z,75
2019-03-21T01:39:03.270Z,75
2019-03-21T01:40:03.312Z,75
2019-03-21T01:41:03.496Z,75
2019-03-21T01:42:03.025Z,75
2019-03-21T01:43:03.324Z,75
2019-03-21T01:44:03.126Z,75
2019-03-21T01:45:03.338Z,75
2019-03-21T01:46:03.289Z,75
2019-03-21T01:47:03.099Z,75
2019-03-21T01:48:02.953Z,75
2019-03-21T01:49:02.782Z,75
2019-03-21T01:50:02.963Z,75
2019-03-21T01:51:03.366Z,75
2019-03-21T01:52:03.138Z,75
2019-03-21T01:53:03.772Z,75
2019-03-21T01:54:03.595Z,75
2019-03-21T01:55:03.736Z,75
2019-03-21T01:56:03.046Z,75
2019-03-21T01:57:02.876Z,75
2019-03-21T01:58:02.969Z,75
2019-03-21T01:59:02.783Z,75
2019-03-21T02:00:03.729Z,75
2019-03-21T02:01:03.618Z,75
2019-03-21T02:02:03.604Z,75
2019-03-21T02:03:02.973Z,75
2019-03-21T02:04:03.637Z,75
2019-03-21T02:05:03.091Z,76
2019-03-21T02:06:03.769Z,76
2019-03-21T02:07:02.691Z,76
2019-03-21T02:08:03.056Z,76
2019-03-21T02:09:03.209Z,76
2019-03-21T02:10:03.271Z,76
2019-03-21T02:11:03.131Z,76
2019-03-21T02:12:03.237Z,76
2019-03-21T02:13:03.789Z,76
2019-03-21T02:14:02.945Z,76
2019-03-21T02:15:03.651Z,76
2019-03-21T02:16:03.119Z,76
2019-03-21T02:17:03.528Z,76
2019-03-21T02:18:02.989Z,76
2019-03-21T02:19:03.785Z,76
2019-03-21T02:20:03.004Z,76
2019-03-21T02:21:03.101Z,76
2019-03-21T02:22:03.653Z,76
2019-03-21T02:23:03.750Z,76
2019-03-21T02:24:03.201Z,76
2019-03-21T02:25:03.157Z,76
2019-03-21T02:26:02.986Z,76
2019-03-21T02:27:03.313Z,76
2019-03-21T02:28:03.388Z,76
2019-03-21T02:29:03.345Z,76
2019-03-21T02:30:03.361Z,76
2019-03-21T02:31:03.190Z,77
2019-03-21T02:32:03.889Z,77
2019-03-21T02:33:02.876Z,77
2019-03-21T02:34:03.851Z,77
2019-03-21T02:35:03.046Z,77
2019-03-21T02:36:03.589Z,77
2019-03-21T02:37:02.986Z,77
2019-03-21T02:38:03.063Z,77
2019-03-21T02:39:03.322Z,77
2019-03-21T02:40:03.400Z,77
2019-03-21T02:41:03.170Z,77
2019-03-21T02:42:03.137Z,77
2019-03-21T02:43:03.171Z,77
2019-03-21T02:44:03.840Z,77
2019-03-21T02:45:10.126Z,77
2019-03-21T02:46:03.262Z,77
2019-03-21T02:47:03.038Z,77
2019-03-21T02:48:03.151Z,77
2019-03-21T02:49:03.420Z,77
2019-03-21T02:50:03.831Z,77
2019-03-21T02:51:03.432Z,77
2019-03-21T02:52:03.415Z,77
2019-03-21T02:53:03.149Z,77
2019-03-21T02:54:03.284Z,77
2019-03-21T02:55:03.753Z,77
2019-03-21T02:56:03.386Z,77
2019-03-21T02:57:03.006Z,77
2019-03-21T02:58:03.378Z,77
2019-03-21T02:59:03.158Z,77
2019-03-21T03:00:03.386Z,77
2019-03-21T03:01:03.132Z,77
2019-03-21T03:02:03.783Z,77
2019-03-21T03:03:03.427Z,77
2019-03-21T03:04:03.892Z,77
2019-03-21T03:05:03.203Z,77
2019-03-21T03:06:03.183Z,77
2019-03-21T03:07:03.688Z,78
2019-03-21T03:08:03.354Z,78
2019-03-21T03:09:03.767Z,78
2019-03-21T03:10:03.399Z,78
2019-03-21T03:11:02.905Z,78
2019-03-21T03:12:03.482Z,78
2019-03-21T03:13:02.755Z,78
2019-03-21T03:14:04.956Z,78
2019-03-21T03:15:03.060Z,78
2019-03-21T03:16:02.918Z,78
2019-03-21T03:17:03.882Z,78
2019-03-21T03:18:03.013Z,78
2019-03-21T03:19:03.253Z,78
2019-03-21T03:20:03.110Z,78
2019-03-21T03:21:03.778Z,78
2019-03-21T03:22:03.485Z,78
2019-03-21T03:23:02.923Z,78
2019-03-21T03:24:03.815Z,78
2019-03-21T03:25:03.141Z,78
2019-03-21T03:26:03.283Z,78
2019-03-21T03:27:03.210Z,78
2019-03-21T03:28:03.626Z,78
2019-03-21T03:29:03.933Z,78
2019-03-21T03:30:03.962Z,78
2019-03-21T03:31:03.176Z,78
2019-03-21T03:32:03.606Z,78
2019-03-21T03:33:03.220Z,78
2019-03-21T03:34:03.902Z,78
2019-03-21T03:35:03.649Z,78
2019-03-21T03:36:03.267Z,78
2019-03-21T03:37:03.261Z,78
2019-03-21T03:38:03.102Z,78
2019-03-21T03:39:03.326Z,78
2019-03-21T03:40:03.421Z,78
2019-03-21T03:41:03.310Z,78
2019-03-21T03:42:03.185Z,78
2019-03-21T03:43:03.158Z,78
2019-03-21T03:44:03.292Z,78
2019-03-21T03:45:03.366Z,78
2019-03-21T03:46:03.237Z,77
2019-03-21T03:47:03.415Z,77
2019-03-21T03:48:03.642Z,77
2019-03-21T03:49:03.719Z,77
2019-03-21T03:50:02.983Z,77
2019-03-21T03:51:03.773Z,77
2019-03-21T03:52:03.763Z,77
2019-03-21T03:53:03.095Z,77
2019-03-21T03:54:03.184Z,77
2019-03-21T03:55:03.209Z,77
2019-03-21T03:56:03.654Z,77
2019-03-21T03:57:03.352Z,77
2019-03-21T03:58:03.313Z,77
2019-03-21T03:59:03.000Z,77
2019-03-21T04:00:03.560Z,77
2019-03-21T04:01:03.083Z,77
2019-03-21T04:02:03.606Z,77
2019-03-21T04:03:03.373Z,77
2019-03-21T04:04:03.527Z,77
2019-03-21T04:05:03.617Z,77
2019-03-21T04:06:03.539Z,77
2019-03-21T04:07:02.994Z,77
2019-03-21T04:08:03.060Z,77
2019-03-21T04:09:02.848Z,77
2019-03-21T04:10:03.866Z,77
2019-03-21T04:11:02.645Z,78
2019-03-21T04:12:03.788Z,78
2019-03-21T04:13:03.626Z,78
2019-03-21T04:14:03.668Z,78
2019-03-21T04:15:03.101Z,78
2019-03-21T04:16:02.991Z,78
2019-03-21T04:17:03.767Z,78
2019-03-21T04:18:03.395Z,78
2019-03-21T04:19:03.420Z,78
2019-03-21T04:20:03.793Z,78
2019-03-21T04:21:03.443Z,78
2019-03-21T04:22:03.334Z,78
2019-03-21T04:23:03.584Z,78
2019-03-21T04:24:03.061Z,78
2019-03-21T04:25:02.812Z,78
2019-03-21T04:26:03.160Z,78
2019-03-21T04:27:03.431Z,78
2019-03-21T04:28:03.706Z,78
2019-03-21T04:29:03.050Z,78
2019-03-21T04:30:03.649Z,78
2019-03-21T04:31:03.180Z,78
2019-03-21T04:32:03.602Z,78
2019-03-21T04:33:03.600Z,78
2019-03-21T04:34:03.688Z,78
2019-03-21T04:35:03.526Z,78
2019-03-21T04:36:03.115Z,78
2019-03-21T04:37:03.319Z,78
2019-03-21T04:38:03.156Z,78
2019-03-21T04:39:03.810Z,78
2019-03-21T04:40:03.585Z,78
2019-03-21T04:41:03.585Z,78
2019-03-21T04:42:02.978Z,78
2019-03-21T04:43:03.039Z,78
2019-03-21T04:44:03.407Z,78
2019-03-21T04:45:03.028Z,78
2019-03-21T04:46:04.198Z,78
2019-03-21T04:47:02.926Z,78
2019-03-21T04:48:03.104Z,78
2019-03-21T04:49:02.932Z,78
2019-03-21T04:50:03.814Z,78
2019-03-21T04:51:03.319Z,78
2019-03-21T04:52:03.095Z,78
2019-03-21T04:53:03.631Z,78
2019-03-21T04:54:03.302Z,78
2019-03-21T04:55:03.748Z,78
2019-03-21T04:56:03.216Z,78
2019-03-21T04:57:03.419Z,78
2019-03-21T04:58:03.398Z,78
2019-03-21T04:59:03.102Z,78
2019-03-21T05:00:04.265Z,78
2019-03-21T05:01:02.948Z,78
2019-03-21T05:02:02.896Z,78
2019-03-21T05:03:03.190Z,78
2019-03-21T05:04:03.221Z,78
2019-03-21T05:05:03.046Z,78
2019-03-21T05:06:03.083Z,78
2019-03-21T05:07:03.376Z,79
2019-03-21T05:08:03.601Z,79
2019-03-21T05:09:03.645Z,79
2019-03-21T05:10:03.710Z,79
2019-03-21T05:11:03.654Z,79
2019-03-21T05:12:04.334Z,79
2019-03-21T05:13:03.154Z,79
2019-03-21T05:14:03.486Z,79
2019-03-21T05:15:03.671Z,79
2019-03-21T05:16:15.366Z,79
2019-03-21T05:17:03.268Z,79
2019-03-21T05:18:03.200Z,79
2019-03-21T05:19:03.187Z,79
2019-03-21T05:20:03.285Z,79
2019-03-21T05:21:03.462Z,79
2019-03-21T05:22:03.710Z,79
2019-03-21T05:23:03.396Z,79
2019-03-21T05:24:03.331Z,79
2019-03-21T05:25:03.954Z,79
2019-03-21T05:26:04.431Z,79
2019-03-21T05:27:03.946Z,79
2019-03-21T05:28:03.258Z,79
2019-03-21T05:29:03.677Z,79
2019-03-21T05:30:03.745Z,79
2019-03-21T05:31:03.288Z,79
2019-03-21T05:32:04.108Z,79
2019-03-21T05:33:03.982Z,79
2019-03-21T05:34:03.003Z,79
2019-03-21T05:35:03.014Z,79
2019-03-21T05:36:02.830Z,79
2019-03-21T05:37:03.006Z,79
2019-03-21T05:38:03.173Z,79
2019-03-21T05:39:03.181Z,79
2019-03-21T05:40:03.354Z,79
2019-03-21T05:41:03.807Z,79
2019-03-21T05:42:03.735Z,79
2019-03-21T05:43:02.950Z,79
2019-03-21T05:44:03.032Z,79
2019-03-21T05:45:03.303Z,79
2019-03-21T05:46:03.140Z,79
2019-03-21T05:47:03.538Z,79
2019-03-21T05:48:03.336Z,79
2019-03-21T05:49:03.578Z,80
2019-03-21T05:50:03.823Z,80
2019-03-21T05:51:03.032Z,80
2019-03-21T05:52:03.216Z,80
2019-03-21T05:53:03.369Z,80
2019-03-21T05:54:03.061Z,80
2019-03-21T05:55:03.736Z,80
2019-03-21T05:56:03.692Z,80
2019-03-21T05:57:03.593Z,80
2019-03-21T05:58:03.224Z,80
2019-03-21T05:59:03.262Z,80
2019-03-21T06:00:02.881Z,80
2019-03-21T06:01:03.520Z,80
2019-03-21T06:02:02.936Z,80
2019-03-21T06:03:03.025Z,80
2019-03-21T06:04:03.561Z,80
2019-03-21T06:05:03.446Z,80
2019-03-21T06:06:02.941Z,80
2019-03-21T06:07:03.699Z,80
2019-03-21T06:08:03.316Z,80
2019-03-21T06:09:03.047Z,80
2019-03-21T06:10:02.773Z,80
2019-03-21T06:11:03.928Z,80
2019-03-21T06:12:03.085Z,80
2019-03-21T06:13:03.565Z,80
2019-03-21T06:14:03.073Z,80
2019-03-21T06:15:03.868Z,80
2019-03-21T06:16:03.802Z,80
2019-03-21T06:17:03.911Z,80
2019-03-21T06:18:03.310Z,80
2019-03-21T06:19:03.561Z,80
2019-03-21T06:20:04.562Z,80
2019-03-21T06:21:03.453Z,79
2019-03-21T06:22:03.198Z,79
2019-03-21T06:23:03.579Z,79
2019-03-21T06:24:03.279Z,79
2019-03-21T06:25:03.534Z,79
2019-03-21T06:26:03.107Z,79
2019-03-21T06:27:15.230Z,79
2019-03-21T06:28:03.517Z,79
2019-03-21T06:29:02.878Z,79
2019-03-21T06:30:03.117Z,79
2019-03-21T06:31:03.467Z,79
2019-03-21T06:32:03.516Z,79
2019-03-21T06:33:03.214Z,79
2019-03-21T06:34:03.025Z,79
2019-03-21T06:35:03.392Z,79
2019-03-21T06:36:03.580Z,79
2019-03-21T06:37:03.076Z,79
2019-03-21T06:38:03.944Z,79
2019-03-21T06:39:03.342Z,79
2019-03-21T06:40:02.946Z,79
2019-03-21T06:41:03.207Z,79
2019-03-21T06:42:02.978Z,79
2019-03-21T06:43:02.907Z,79
2019-03-21T06:44:02.900Z,79
2019-03-21T06:45:03.010Z,79
2019-03-21T06:46:02.765Z,79
2019-03-21T06:47:03.008Z,79
2019-03-21T06:48:03.044Z,79
2019-03-21T06:49:03.845Z,79
2019-03-21T06:50:03.957Z,79
2019-03-21T06:51:03.817Z,79
2019-03-21T06:52:02.939Z,79
2019-03-21T06:53:03.626Z,79
2019-03-21T06:54:03.420Z,79
2019-03-21T06:55:03.698Z,79
2019-03-21T06:56:04.106Z,79
2019-03-21T06:57:03.409Z,79
2019-03-21T06:58:03.764Z,79
2019-03-21T06:59:03.707Z,79
2019-03-21T07:00:03.937Z,79
2019-03-21T07:01:03.604Z,79
2019-03-21T07:02:03.624Z,79
2019-03-21T07:03:03.111Z,79
2019-03-21T07:04:07.855Z,78
2019-03-21T07:05:03.481Z,78
2019-03-21T07:06:03.254Z,78
2019-03-21T07:07:08.888Z,78
2019-03-21T07:08:03.379Z,78
2019-03-21T07:09:03.119Z,78
2019-03-21T07:10:03.213Z,78
2019-03-21T07:11:03.151Z,78
2019-03-21T07:12:03.867Z,78
2019-03-21T07:13:03.075Z,78
2019-03-21T07:14:03.230Z,78
2019-03-21T07:15:04.761Z,78
2019-03-21T07:16:03.375Z,78
2019-03-21T07:17:03.209Z,78
2019-03-21T07:18:03.320Z,78
2019-03-21T07:19:03.572Z,78
2019-03-21T07:20:03.412Z,77
2019-03-21T07:21:03.414Z,77
2019-03-21T07:22:03.502Z,77
2019-03-21T07:23:03.260Z,77
2019-03-21T07:24:03.352Z,77
2019-03-21T07:25:03.190Z,77
2019-03-21T07:26:03.642Z,77
2019-03-21T07:27:03.296Z,77
2019-03-21T07:28:03.120Z,76
2019-03-21T07:29:03.383Z,76
2019-03-21T07:30:03.617Z,76
2019-03-21T07:31:03.324Z,76
2019-03-21T07:32:03.518Z,76
2019-03-21T07:33:03.287Z,76
2019-03-21T07:34:03.108Z,76
2019-03-21T07:35:03.279Z,76
2019-03-21T07:36:03.082Z,76
2019-03-21T07:37:03.179Z,76
2019-03-21T07:38:03.029Z,76
2019-03-21T07:39:03.248Z,75
2019-03-21T07:40:03.105Z,75
2019-03-21T07:41:03.135Z,75
2019-03-21T07:42:03.113Z,75
2019-03-21T07:43:03.220Z,75
2019-03-21T07:44:02.983Z,75
2019-03-21T07:45:03.192Z,75
2019-03-21T07:46:03.324Z,74
2019-03-21T07:47:13.698Z,74
2019-03-21T07:48:05.578Z,74
2019-03-21T07:49:02.781Z,74
2019-03-21T07:50:02.965Z,74
2019-03-21T07:51:03.882Z,74
2019-03-21T07:52:03.872Z,73
2019-03-21T07:53:03.702Z,73
2019-03-21T07:54:02.896Z,73
2019-03-21T07:55:03.954Z,74
2019-03-21T07:56:04.394Z,74
2019-03-21T07:57:02.953Z,73
2019-03-21T07:58:03.781Z,73
2019-03-21T07:59:03.557Z,73
2019-03-21T08:00:03.702Z,73
2019-03-21T08:01:03.627Z,73
2019-03-21T08:02:03.563Z,72
2019-03-21T08:03:03.231Z,72
2019-03-21T08:04:03.639Z,72
2019-03-21T08:05:03.688Z,72
2019-03-21T08:06:03.698Z,72
2019-03-21T08:07:03.482Z,72
2019-03-21T08:08:03.580Z,71
2019-03-21T08:09:03.499Z,71
2019-03-21T08:10:03.673Z,71
2019-03-21T08:11:03.616Z,71
2019-03-21T08:12:03.607Z,71
2019-03-21T08:13:03.779Z,71
2019-03-21T08:14:03.542Z,71
2019-03-21T08:15:03.491Z,71
2019-03-21T08:16:03.408Z,70
2019-03-21T08:17:03.624Z,70
2019-03-21T08:18:03.484Z,70
2019-03-21T08:19:03.238Z,70
2019-03-21T08:20:03.452Z,70
2019-03-21T08:21:03.529Z,70
2019-03-21T08:22:03.436Z,69
2019-03-21T08:23:03.160Z,69
2019-03-21T08:24:03.507Z,69
2019-03-21T08:25:03.289Z,69
2019-03-21T08:26:03.306Z,69
2019-03-21T08:27:03.365Z,69
2019-03-21T08:28:03.205Z,69
2019-03-21T08:29:03.248Z,69
2019-03-21T08:30:03.460Z,69
2019-03-21T08:31:03.255Z,68
2019-03-21T08:32:03.222Z,68
2019-03-21T08:33:03.512Z,68
2019-03-21T08:34:03.185Z,68
2019-03-21T08:35:03.298Z,68
2019-03-21T08:36:03.217Z,67
2019-03-21T08:37:03.457Z,67
2019-03-21T08:38:03.146Z,67
2019-03-21T08:39:03.535Z,67
2019-03-21T08:40:03.375Z,67
2019-03-21T08:41:03.505Z,67
2019-03-21T08:42:03.320Z,67
2019-03-21T08:43:03.348Z,67
2019-03-21T08:44:03.334Z,66
2019-03-21T08:45:03.159Z,66
2019-03-21T08:46:03.355Z,66
2019-03-21T08:47:03.120Z,66
2019-03-21T08:48:03.239Z,66
2019-03-21T08:49:02.990Z,65
2019-03-21T08:50:03.105Z,65
2019-03-21T08:51:09.131Z,65
2019-03-21T08:52:03.194Z,65
2019-03-21T08:53:03.022Z,65
2019-03-21T08:54:03.023Z,65
2019-03-21T08:55:03.094Z,65
2019-03-21T08:56:02.918Z,64
2019-03-21T08:57:03.740Z,64
2019-03-21T08:58:02.910Z,64
2019-03-21T08:59:03.010Z,64
2019-03-21T09:00:03.106Z,63
2019-03-21T09:01:03.947Z,63
2019-03-21T09:02:03.963Z,63
2019-03-21T09:03:03.059Z,63
2019-03-21T09:04:03.018Z,63
2019-03-21T09:05:03.297Z,63
2019-03-21T09:06:03.024Z,62
2019-03-21T09:07:03.761Z,62
2019-03-21T09:08:03.738Z,62
2019-03-21T09:09:03.041Z,62
2019-03-21T09:10:03.720Z,62
2019-03-21T09:11:03.966Z,62
2019-03-21T09:12:03.476Z,62
2019-03-21T09:13:03.399Z,61
2019-03-21T09:14:03.607Z,61
2019-03-21T09:15:03.738Z,61
2019-03-21T09:16:03.589Z,61
2019-03-21T09:17:03.414Z,61
2019-03-21T09:18:03.606Z,60
2019-03-21T09:19:03.638Z,60
2019-03-21T09:20:03.453Z,61
2019-03-21T09:21:03.271Z,61
2019-03-21T09:22:03.534Z,60
2019-03-21T09:23:03.442Z,59
2019-03-21T09:24:03.620Z,59
2019-03-21T09:25:05.094Z,59
2019-03-21T09:26:03.353Z,59
2019-03-21T09:27:03.346Z,59
2019-03-21T09:28:03.346Z,59
2019-03-21T09:29:03.271Z,59
2019-03-21T09:30:03.367Z,59
2019-03-21T09:31:03.322Z,59
2019-03-21T09:32:02.964Z,59
2019-03-21T09:33:03.250Z,59
2019-03-21T09:34:03.214Z,59
2019-03-21T09:35:03.253Z,59
2019-03-21T09:36:03.235Z,57
2019-03-21T09:37:04.437Z,57
2019-03-21T09:38:02.919Z,58
2019-03-21T09:39:03.097Z,58
2019-03-21T09:40:02.808Z,58
2019-03-21T09:41:02.938Z,56
2019-03-21T09:42:02.888Z,56
2019-03-21T09:43:03.580Z,56
2019-03-21T09:44:02.931Z,55
2019-03-21T09:45:03.628Z,55
2019-03-21T09:46:03.065Z,55
2019-03-21T09:47:03.810Z,55
2019-03-21T09:48:02.893Z,55
2019-03-21T09:49:03.742Z,55
2019-03-21T09:50:02.873Z,55
2019-03-21T09:51:03.828Z,55
2019-03-21T09:52:02.783Z,55
2019-03-21T09:53:03.071Z,54
2019-03-21T09:54:10.207Z,54
2019-03-21T09:55:03.116Z,53
2019-03-21T09:56:03.926Z,53
2019-03-21T09:57:02.817Z,53
2019-03-21T09:58:03.709Z,54
2019-03-21T09:59:03.680Z,54
2019-03-21T10:00:03.839Z,53
2019-03-21T10:01:03.790Z,53
2019-03-21T10:02:03.702Z,52
2019-03-21T10:03:03.676Z,52
2019-03-21T10:04:03.462Z,53
2019-03-21T10:05:03.470Z,53
2019-03-21T10:06:03.571Z,54
2019-03-21T10:07:03.339Z,53
2019-03-21T10:08:03.338Z,53
2019-03-21T10:09:03.151Z,52
2019-03-21T10:10:03.666Z,52
2019-03-21T10:11:03.041Z,52
2019-03-21T10:12:03.597Z,52
2019-03-21T10:13:03.272Z,50
2019-03-21T10:14:03.553Z,51
2019-03-21T10:15:03.198Z,50
2019-03-21T10:16:03.198Z,50
2019-03-21T10:17:03.149Z,50
2019-03-21T10:18:03.559Z,50
2019-03-21T10:19:03.441Z,50
2019-03-21T10:20:03.030Z,50
2019-03-21T10:21:03.323Z,49
2019-03-21T10:22:03.143Z,49
2019-03-21T10:23:02.902Z,49
2019-03-21T10:24:02.738Z,50
2019-03-21T10:25:03.434Z,49
2019-03-21T10:26:03.117Z,49
2019-03-21T10:27:02.888Z,48
2019-03-21T10:28:03.064Z,48
2019-03-21T10:29:03.119Z,48
2019-03-21T10:30:03.149Z,48
2019-03-21T10:31:03.102Z,47
2019-03-21T10:32:14.937Z,47
2019-03-21T10:33:02.760Z,47
2019-03-21T10:34:03.753Z,47
2019-03-21T10:35:03.867Z,47
2019-03-21T10:36:03.057Z,48
2019-03-21T10:37:02.808Z,48
2019-03-21T10:38:02.956Z,48
2019-03-21T10:39:02.911Z,48
2019-03-21T10:40:03.993Z,47
2019-03-21T10:41:04.011Z,47
2019-03-21T10:42:03.871Z,47
2019-03-21T10:43:03.802Z,47
2019-03-21T10:44:02.903Z,47
2019-03-21T10:45:04.007Z,47
2019-03-21T10:46:03.854Z,46
2019-03-21T10:47:03.611Z,46
2019-03-21T10:48:03.481Z,45
2019-03-21T10:49:03.534Z,45
2019-03-21T10:50:03.612Z,45
2019-03-21T10:51:03.574Z,45
2019-03-21T10:52:03.579Z,45
2019-03-21T10:53:03.393Z,45
2019-03-21T10:54:03.550Z,45
2019-03-21T10:55:03.785Z,45
2019-03-21T10:56:03.089Z,40
2019-03-21T10:57:03.315Z,39
2019-03-21T10:58:03.462Z,39
2019-03-21T10:59:03.230Z,40
2019-03-21T11:00:03.332Z,40
2019-03-21T11:01:03.369Z,40
2019-03-21T11:02:07.897Z,40
2019-03-21T11:03:03.189Z,41
2019-03-21T11:04:03.328Z,41
2019-03-21T11:05:03.199Z,41
2019-03-21T11:06:03.259Z,42
2019-03-21T11:07:03.169Z,42
2019-03-21T11:08:03.279Z,40
2019-03-21T11:09:02.901Z,40
2019-03-21T11:10:03.681Z,41
2019-03-21T11:11:03.055Z,40
2019-03-21T11:12:03.393Z,41
2019-03-21T11:13:03.445Z,41
2019-03-21T11:14:03.003Z,41
2019-03-21T11:15:03.166Z,41
2019-03-21T11:16:03.170Z,41
2019-03-21T11:17:03.172Z,41
2019-03-21T11:18:03.036Z,41
2019-03-21T11:19:02.964Z,41
2019-03-21T11:20:03.095Z,41
2019-03-21T11:21:03.772Z,41
2019-03-21T11:22:06.974Z,41
2019-03-21T11:23:03.215Z,40
2019-03-21T11:24:03.911Z,40
2019-03-21T11:25:03.296Z,37
2019-03-21T11:26:03.102Z,37
2019-03-21T11:27:03.031Z,37
2019-03-21T11:28:02.971Z,39
2019-03-21T11:29:03.449Z,40
2019-03-21T11:30:02.914Z,40
2019-03-21T11:31:03.704Z,40
2019-03-21T11:32:04.156Z,40
2019-03-21T11:33:03.723Z,40
2019-03-21T11:34:02.896Z,39
2019-03-21T11:35:03.805Z,39
2019-03-21T11:36:03.819Z,38
2019-03-21T11:37:03.811Z,38
2019-03-21T11:38:03.014Z,38
2019-03-21T11:39:03.895Z,37
2019-03-21T11:40:03.186Z,38
2019-03-21T11:41:03.392Z,38
2019-03-21T11:42:03.750Z,38
2019-03-21T11:43:03.266Z,39
2019-03-21T11:44:03.512Z,39
2019-03-21T11:45:03.178Z,39
2019-03-21T11:46:02.987Z,38
2019-03-21T11:47:03.436Z,37
2019-03-21T11:48:03.390Z,38
2019-03-21T11:49:03.881Z,38
2019-03-21T11:50:03.932Z,37
2019-03-21T11:51:03.611Z,38
2019-03-21T11:52:03.280Z,38
2019-03-21T11:53:03.301Z,38
2019-03-21T11:54:03.056Z,39
2019-03-21T11:55:03.594Z,39
2019-03-21T11:56:03.525Z,38
2019-03-21T11:57:02.846Z,38
2019-03-21T11:58:03.450Z,36
2019-03-21T11:59:03.287Z,35
2019-03-21T12:00:03.286Z,35
2019-03-21T12:01:03.183Z,36
2019-03-21T12:02:04.017Z,35
2019-03-21T12:03:04.633Z,36
2019-03-21T12:04:03.330Z,37
2019-03-21T12:05:03.073Z,36
2019-03-21T12:06:03.065Z,36
2019-03-21T12:07:03.596Z,36
2019-03-21T12:08:02.892Z,36
2019-03-21T12:09:03.517Z,37
2019-03-21T12:10:03.085Z,37
2019-03-21T12:11:03.118Z,37
2019-03-21T12:12:03.064Z,37
2019-03-21T12:13:03.859Z,37
2019-03-21T12:14:03.138Z,37
2019-03-21T12:15:03.404Z,37
2019-03-21T12:16:03.452Z,37
2019-03-21T12:17:03.288Z,37
2019-03-21T12:18:03.398Z,37
2019-03-21T12:19:03.391Z,38
2019-03-21T12:20:03.765Z,37
2019-03-21T12:21:03.031Z,37
2019-03-21T12:22:03.315Z,37
2019-03-21T12:23:03.388Z,36
2019-03-21T12:24:03.074Z,36
2019-03-21T12:25:02.722Z,35
2019-03-21T12:26:03.611Z,36
2019-03-21T12:27:03.703Z,36
2019-03-21T12:28:03.945Z,36
2019-03-21T12:29:03.768Z,36
2019-03-21T12:30:03.060Z,36
2019-03-21T12:31:02.934Z,36
2019-03-21T12:32:04.377Z,36
2019-03-21T12:33:02.999Z,36
2019-03-21T12:34:03.783Z,36
2019-03-21T12:35:03.028Z,36
2019-03-21T12:36:03.514Z,36
2019-03-21T12:37:03.941Z,36
2019-03-21T12:38:03.724Z,36
2019-03-21T12:39:03.825Z,36
2019-03-21T12:40:03.845Z,36
2019-03-21T12:41:02.919Z,34
2019-03-21T12:42:03.742Z,35
2019-03-21T12:43:03.757Z,35
2019-03-21T12:44:03.437Z,35
2019-03-21T12:45:03.429Z,35
2019-03-21T12:46:03.499Z,35
2019-03-21T12:47:03.459Z,35
2019-03-21T12:48:03.506Z,35
2019-03-21T12:49:03.566Z,35
2019-03-21T12:50:03.477Z,35
2019-03-21T12:51:03.215Z,35
2019-03-21T12:52:03.270Z,35
2019-03-21T12:53:03.267Z,35
2019-03-21T12:54:03.579Z,35
2019-03-21T12:55:03.358Z,35
2019-03-21T12:56:03.710Z,35
2019-03-21T12:57:03.700Z,35
2019-03-21T12:58:03.281Z,35
2019-03-21T12:59:03.393Z,35
2019-03-21T13:00:03.571Z,35
2019-03-21T13:01:03.521Z,35
2019-03-21T13:02:03.403Z,35
2019-03-21T13:03:03.397Z,35
2019-03-21T13:04:03.355Z,35
2019-03-21T13:05:03.198Z,35
2019-03-21T13:06:03.420Z,35
2019-03-21T13:07:03.199Z,35
2019-03-21T13:08:03.353Z,35
2019-03-21T13:09:03.647Z,35
2019-03-21T13:10:03.633Z,35
2019-03-21T13:11:03.155Z,35
2019-03-21T13:12:03.220Z,34
2019-03-21T13:13:03.191Z,34
2019-03-21T13:14:03.130Z,35
2019-03-21T13:15:02.987Z,36
2019-03-21T13:16:03.137Z,36
2019-03-21T13:17:03.352Z,36
2019-03-21T13:18:03.343Z,36
2019-03-21T13:19:03.244Z,36
2019-03-21T13:20:03.425Z,36
2019-03-21T13:21:03.347Z,36
2019-03-21T13:22:03.105Z,36
2019-03-21T13:23:03.038Z,36
2019-03-21T13:24:03.392Z,36
2019-03-21T13:25:03.021Z,36
2019-03-21T13:26:02.994Z,35
2019-03-21T13:27:03.168Z,36
2019-03-21T13:28:03.187Z,36
2019-03-21T13:29:03.764Z,36
2019-03-21T13:30:03.990Z,36
2019-03-21T13:31:03.296Z,35
2019-03-21T13:32:03.635Z,35
2019-03-21T13:33:03.083Z,35
2019-03-21T13:34:02.803Z,35
2019-03-21T13:35:03.158Z,36
2019-03-21T13:36:04.094Z,36
2019-03-21T13:37:02.932Z,36
2019-03-21T13:38:03.949Z,36
2019-03-21T13:39:03.731Z,36
2019-03-21T13:40:03.096Z,36
2019-03-21T13:41:02.906Z,36
2019-03-21T13:42:03.796Z,35
2019-03-21T13:43:03.611Z,36
2019-03-21T13:44:03.622Z,36
2019-03-21T13:45:03.538Z,36
2019-03-21T13:46:03.475Z,36
2019-03-21T13:47:03.523Z,36
2019-03-21T13:48:03.551Z,36
2019-03-21T13:49:06.375Z,36
2019-03-21T13:50:03.246Z,36
2019-03-21T13:51:03.534Z,36
2019-03-21T13:52:05.269Z,36
2019-03-21T13:53:19.331Z,37
2019-03-21T13:54:03.363Z,37
2019-03-21T13:55:03.721Z,37
2019-03-21T13:56:03.244Z,37
2019-03-21T13:57:03.450Z,37
2019-03-21T13:58:03.256Z,37
2019-03-21T13:59:03.572Z,36
2019-03-21T14:00:03.667Z,36
2019-03-21T14:01:03.716Z,36
2019-03-21T14:02:03.485Z,36
2019-03-21T14:03:03.709Z,36
2019-03-21T14:04:03.615Z,36
2019-03-21T14:05:04.200Z,36
2019-03-21T14:06:03.719Z,36
2019-03-21T14:07:03.453Z,36
2019-03-21T14:08:03.470Z,36
2019-03-21T14:09:03.411Z,36
2019-03-21T14:10:03.075Z,36
2019-03-21T14:11:03.152Z,36
2019-03-21T14:12:03.286Z,36
2019-03-21T14:13:03.289Z,36
2019-03-21T14:14:03.032Z,36
2019-03-21T14:15:03.209Z,36